sensor_id;sensor_type;location;lat;lon;timestamp;temperature;humidity
13115;DHT22;6623;52.120;8.660;2024-02-15T00:00:29;19.80;46.30
13115;DHT22;6623;52.120;8.660;2024-02-15T00:02:54;19.80;46.30
13115;DHT22;6623;52.120;8.660;2024-02-15T00:05:21;19.80;46.30
13115;DHT22;6623;52.120;8.660;2024-02-15T00:07:47;19.80;46.30
13115;DHT22;6623;52.120;8.660;2024-02-15T00:10:14;19.80;46.30
13115;DHT22;6623;52.120;8.660;2024-02-15T00:12:40;19.80;46.30
13115;DHT22;6623;52.120;8.660;2024-02-15T00:15:05;19.80;46.30
13115;DHT22;6623;52.120;8.660;2024-02-15T00:17:31;19.80;46.30
13115;DHT22;6623;52.120;8.660;2024-02-15T00:19:57;19.80;46.30
13115;DHT22;6623;52.120;8.660;2024-02-15T00:22:23;19.80;46.30
13115;DHT22;6623;52.120;8.660;2024-02-15T00:24:48;19.80;46.30
13115;DHT22;6623;52.120;8.660;2024-02-15T00:27:17;19.80;46.30
13115;DHT22;6623;52.120;8.660;2024-02-15T00:29:43;19.80;46.30
13115;DHT22;6623;52.120;8.660;2024-02-15T00:32:09;19.80;46.30
13115;DHT22;6623;52.120;8.660;2024-02-15T00:34:36;19.80;46.30
13115;DHT22;6623;52.120;8.660;2024-02-15T00:37:04;19.80;46.30
13115;DHT22;6623;52.120;8.660;2024-02-15T00:39:30;19.80;46.30
13115;DHT22;6623;52.120;8.660;2024-02-15T00:41:57;19.80;46.30
13115;DHT22;6623;52.120;8.660;2024-02-15T00:44:22;19.80;46.30
13115;DHT22;6623;52.120;8.660;2024-02-15T00:46:48;19.80;46.30
13115;DHT22;6623;52.120;8.660;2024-02-15T00:49:13;19.80;46.30
13115;DHT22;6623;52.120;8.660;2024-02-15T00:51:39;19.80;46.30
13115;DHT22;6623;52.120;8.660;2024-02-15T00:54:05;19.80;46.30
13115;DHT22;6623;52.120;8.660;2024-02-15T00:56:31;19.80;46.40
13115;DHT22;6623;52.120;8.660;2024-02-15T00:58:59;19.80;46.30
13115;DHT22;6623;52.120;8.660;2024-02-15T01:01:26;19.80;46.30
13115;DHT22;6623;52.120;8.660;2024-02-15T01:03:51;19.80;46.40
13115;DHT22;6623;52.120;8.660;2024-02-15T01:06:17;19.80;46.30
13115;DHT22;6623;52.120;8.660;2024-02-15T01:08:43;19.80;46.30
13115;DHT22;6623;52.120;8.660;2024-02-15T01:11:09;19.80;46.40
13115;DHT22;6623;52.120;8.660;2024-02-15T01:13:35;19.80;46.30
13115;DHT22;6623;52.120;8.660;2024-02-15T01:16:00;19.80;46.30
13115;DHT22;6623;52.120;8.660;2024-02-15T01:18:29;19.80;46.30
13115;DHT22;6623;52.120;8.660;2024-02-15T01:20:55;19.80;46.30
13115;DHT22;6623;52.120;8.660;2024-02-15T01:23:21;19.80;46.30
13115;DHT22;6623;52.120;8.660;2024-02-15T01:25:48;19.80;46.30
13115;DHT22;6623;52.120;8.660;2024-02-15T01:28:13;19.80;46.30
13115;DHT22;6623;52.120;8.660;2024-02-15T01:30:39;19.80;46.30
13115;DHT22;6623;52.120;8.660;2024-02-15T01:33:04;19.80;46.30
13115;DHT22;6623;52.120;8.660;2024-02-15T01:35:30;19.80;46.40
13115;DHT22;6623;52.120;8.660;2024-02-15T01:37:56;19.80;46.40
13115;DHT22;6623;52.120;8.660;2024-02-15T01:40:21;19.80;46.40
13115;DHT22;6623;52.120;8.660;2024-02-15T01:42:47;19.80;46.40
13115;DHT22;6623;52.120;8.660;2024-02-15T01:45:15;19.80;47.00
13115;DHT22;6623;52.120;8.660;2024-02-15T01:47:41;19.80;46.40
13115;DHT22;6623;52.120;8.660;2024-02-15T01:50:10;19.80;46.40
13115;DHT22;6623;52.120;8.660;2024-02-15T01:52:35;19.80;46.40
13115;DHT22;6623;52.120;8.660;2024-02-15T01:55:03;19.80;46.40
13115;DHT22;6623;52.120;8.660;2024-02-15T01:57:35;19.80;46.40
13115;DHT22;6623;52.120;8.660;2024-02-15T02:00:01;19.80;46.40
13115;DHT22;6623;52.120;8.660;2024-02-15T02:02:30;19.80;46.40
13115;DHT22;6623;52.120;8.660;2024-02-15T02:04:57;19.80;46.40
13115;DHT22;6623;52.120;8.660;2024-02-15T02:07:22;19.80;46.40
13115;DHT22;6623;52.120;8.660;2024-02-15T02:09:48;19.80;46.40
13115;DHT22;6623;52.120;8.660;2024-02-15T02:12:14;19.80;46.40
13115;DHT22;6623;52.120;8.660;2024-02-15T02:14:40;19.80;46.40
13115;DHT22;6623;52.120;8.660;2024-02-15T02:17:13;19.80;46.40
13115;DHT22;6623;52.120;8.660;2024-02-15T02:19:39;19.80;46.40
13115;DHT22;6623;52.120;8.660;2024-02-15T02:22:05;19.80;46.40
13115;DHT22;6623;52.120;8.660;2024-02-15T02:24:33;19.80;46.40
13115;DHT22;6623;52.120;8.660;2024-02-15T02:27:05;19.80;46.40
13115;DHT22;6623;52.120;8.660;2024-02-15T02:29:31;19.80;46.40
13115;DHT22;6623;52.120;8.660;2024-02-15T02:31:57;19.80;46.40
13115;DHT22;6623;52.120;8.660;2024-02-15T02:34:23;19.80;46.40
13115;DHT22;6623;52.120;8.660;2024-02-15T02:36:50;19.80;46.40
13115;DHT22;6623;52.120;8.660;2024-02-15T02:39:16;19.80;46.40
13115;DHT22;6623;52.120;8.660;2024-02-15T02:41:42;19.80;46.40
13115;DHT22;6623;52.120;8.660;2024-02-15T02:44:08;19.80;46.40
13115;DHT22;6623;52.120;8.660;2024-02-15T02:46:33;19.80;46.40
13115;DHT22;6623;52.120;8.660;2024-02-15T02:48:59;19.80;46.40
13115;DHT22;6623;52.120;8.660;2024-02-15T02:51:24;19.80;46.40
13115;DHT22;6623;52.120;8.660;2024-02-15T02:53:50;19.80;46.40
13115;DHT22;6623;52.120;8.660;2024-02-15T02:56:15;19.80;46.40
13115;DHT22;6623;52.120;8.660;2024-02-15T02:58:41;19.80;46.40
13115;DHT22;6623;52.120;8.660;2024-02-15T03:01:08;19.90;46.40
13115;DHT22;6623;52.120;8.660;2024-02-15T03:03:33;19.80;46.40
13115;DHT22;6623;52.120;8.660;2024-02-15T03:05:59;19.80;46.40
13115;DHT22;6623;52.120;8.660;2024-02-15T03:08:24;19.80;46.40
13115;DHT22;6623;52.120;8.660;2024-02-15T03:10:50;19.80;46.40
13115;DHT22;6623;52.120;8.660;2024-02-15T03:13:17;19.80;46.40
13115;DHT22;6623;52.120;8.660;2024-02-15T03:15:44;19.80;46.40
13115;DHT22;6623;52.120;8.660;2024-02-15T03:18:16;19.80;46.40
13115;DHT22;6623;52.120;8.660;2024-02-15T03:20:41;19.80;46.40
13115;DHT22;6623;52.120;8.660;2024-02-15T03:23:07;19.80;46.40
13115;DHT22;6623;52.120;8.660;2024-02-15T03:25:33;19.80;46.40
13115;DHT22;6623;52.120;8.660;2024-02-15T03:28:00;19.80;46.40
13115;DHT22;6623;52.120;8.660;2024-02-15T03:30:31;19.80;46.50
13115;DHT22;6623;52.120;8.660;2024-02-15T03:32:57;19.80;46.40
13115;DHT22;6623;52.120;8.660;2024-02-15T03:35:24;19.80;46.40
13115;DHT22;6623;52.120;8.660;2024-02-15T03:37:50;19.80;46.40
13115;DHT22;6623;52.120;8.660;2024-02-15T03:40:17;19.80;46.50
13115;DHT22;6623;52.120;8.660;2024-02-15T03:42:43;19.80;46.50
13115;DHT22;6623;52.120;8.660;2024-02-15T03:45:09;19.80;46.40
13115;DHT22;6623;52.120;8.660;2024-02-15T03:47:36;19.80;46.50
13115;DHT22;6623;52.120;8.660;2024-02-15T03:50:02;19.80;46.40
13115;DHT22;6623;52.120;8.660;2024-02-15T03:52:28;19.80;46.40
13115;DHT22;6623;52.120;8.660;2024-02-15T03:54:55;19.80;46.50
13115;DHT22;6623;52.120;8.660;2024-02-15T03:57:23;19.80;46.50
13115;DHT22;6623;52.120;8.660;2024-02-15T03:59:48;19.80;46.50
13115;DHT22;6623;52.120;8.660;2024-02-15T04:02:18;19.80;46.50
13115;DHT22;6623;52.120;8.660;2024-02-15T04:04:44;19.80;46.50
13115;DHT22;6623;52.120;8.660;2024-02-15T04:07:15;19.80;46.50
13115;DHT22;6623;52.120;8.660;2024-02-15T04:09:42;19.80;46.50
13115;DHT22;6623;52.120;8.660;2024-02-15T04:12:08;19.80;46.50
13115;DHT22;6623;52.120;8.660;2024-02-15T04:14:33;19.80;46.50
13115;DHT22;6623;52.120;8.660;2024-02-15T04:17:00;19.80;46.50
13115;DHT22;6623;52.120;8.660;2024-02-15T04:19:27;19.80;46.50
13115;DHT22;6623;52.120;8.660;2024-02-15T04:21:52;19.80;46.50
13115;DHT22;6623;52.120;8.660;2024-02-15T04:24:19;19.80;46.50
13115;DHT22;6623;52.120;8.660;2024-02-15T04:26:45;19.80;46.50
13115;DHT22;6623;52.120;8.660;2024-02-15T04:29:12;19.80;46.50
13115;DHT22;6623;52.120;8.660;2024-02-15T04:31:38;19.80;46.50
13115;DHT22;6623;52.120;8.660;2024-02-15T04:34:04;19.80;46.50
13115;DHT22;6623;52.120;8.660;2024-02-15T04:36:30;19.80;46.50
13115;DHT22;6623;52.120;8.660;2024-02-15T04:38:59;19.80;46.50
13115;DHT22;6623;52.120;8.660;2024-02-15T04:41:27;19.80;46.50
13115;DHT22;6623;52.120;8.660;2024-02-15T04:43:52;19.80;46.40
13115;DHT22;6623;52.120;8.660;2024-02-15T04:46:18;19.80;46.40
13115;DHT22;6623;52.120;8.660;2024-02-15T04:48:48;19.80;46.50
13115;DHT22;6623;52.120;8.660;2024-02-15T04:51:15;19.80;47.10
13115;DHT22;6623;52.120;8.660;2024-02-15T04:53:45;19.80;46.50
13115;DHT22;6623;52.120;8.660;2024-02-15T04:56:12;19.80;46.50
13115;DHT22;6623;52.120;8.660;2024-02-15T04:58:42;19.80;46.50
13115;DHT22;6623;52.120;8.660;2024-02-15T05:01:15;19.80;46.50
13115;DHT22;6623;52.120;8.660;2024-02-15T05:03:44;19.80;46.50
13115;DHT22;6623;52.120;8.660;2024-02-15T05:06:10;19.80;46.50
13115;DHT22;6623;52.120;8.660;2024-02-15T05:08:38;19.80;46.50
13115;DHT22;6623;52.120;8.660;2024-02-15T05:11:09;19.80;46.50
13115;DHT22;6623;52.120;8.660;2024-02-15T05:13:40;19.80;46.50
13115;DHT22;6623;52.120;8.660;2024-02-15T05:16:06;19.80;46.60
13115;DHT22;6623;52.120;8.660;2024-02-15T05:18:31;19.80;46.50
13115;DHT22;6623;52.120;8.660;2024-02-15T05:20:57;19.80;46.50
13115;DHT22;6623;52.120;8.660;2024-02-15T05:23:22;19.80;46.50
13115;DHT22;6623;52.120;8.660;2024-02-15T05:25:48;19.80;46.50
13115;DHT22;6623;52.120;8.660;2024-02-15T05:28:13;19.80;46.50
13115;DHT22;6623;52.120;8.660;2024-02-15T05:30:39;19.80;46.50
13115;DHT22;6623;52.120;8.660;2024-02-15T05:33:04;19.80;46.50
13115;DHT22;6623;52.120;8.660;2024-02-15T05:35:30;19.80;46.50
13115;DHT22;6623;52.120;8.660;2024-02-15T05:37:56;19.80;46.50
13115;DHT22;6623;52.120;8.660;2024-02-15T05:40:22;19.80;46.50
13115;DHT22;6623;52.120;8.660;2024-02-15T05:42:47;19.80;46.50
13115;DHT22;6623;52.120;8.660;2024-02-15T05:47:52;19.80;46.60
13115;DHT22;6623;52.120;8.660;2024-02-15T05:50:17;19.80;46.60
13115;DHT22;6623;52.120;8.660;2024-02-15T05:52:46;19.80;46.60
13115;DHT22;6623;52.120;8.660;2024-02-15T05:55:12;19.80;46.50
13115;DHT22;6623;52.120;8.660;2024-02-15T05:57:45;19.80;46.60
13115;DHT22;6623;52.120;8.660;2024-02-15T06:00:11;19.80;46.50
13115;DHT22;6623;52.120;8.660;2024-02-15T06:02:36;19.80;46.50
13115;DHT22;6623;52.120;8.660;2024-02-15T06:05:03;19.80;46.60
13115;DHT22;6623;52.120;8.660;2024-02-15T06:07:30;19.80;46.60
13115;DHT22;6623;52.120;8.660;2024-02-15T06:09:59;19.80;46.50
13115;DHT22;6623;52.120;8.660;2024-02-15T06:12:28;19.80;46.50
13115;DHT22;6623;52.120;8.660;2024-02-15T06:14:54;19.80;46.50
13115;DHT22;6623;52.120;8.660;2024-02-15T06:17:20;19.80;46.60
13115;DHT22;6623;52.120;8.660;2024-02-15T06:19:45;19.80;46.60
13115;DHT22;6623;52.120;8.660;2024-02-15T06:22:11;19.80;46.60
13115;DHT22;6623;52.120;8.660;2024-02-15T06:24:37;19.80;46.60
13115;DHT22;6623;52.120;8.660;2024-02-15T06:27:03;19.80;46.60
13115;DHT22;6623;52.120;8.660;2024-02-15T06:29:29;19.80;46.60
13115;DHT22;6623;52.120;8.660;2024-02-15T06:32:13;19.80;46.60
13115;DHT22;6623;52.120;8.660;2024-02-15T06:34:57;19.80;46.60
13115;DHT22;6623;52.120;8.660;2024-02-15T06:37:41;19.80;46.60
13115;DHT22;6623;52.120;8.660;2024-02-15T06:40:25;19.80;46.60
13115;DHT22;6623;52.120;8.660;2024-02-15T06:42:50;19.80;46.60
13115;DHT22;6623;52.120;8.660;2024-02-15T06:45:16;19.80;46.60
13115;DHT22;6623;52.120;8.660;2024-02-15T06:47:43;19.80;46.60
13115;DHT22;6623;52.120;8.660;2024-02-15T06:50:15;19.80;46.60
13115;DHT22;6623;52.120;8.660;2024-02-15T06:52:42;19.80;46.60
13115;DHT22;6623;52.120;8.660;2024-02-15T06:55:08;19.80;46.60
13115;DHT22;6623;52.120;8.660;2024-02-15T06:57:38;19.80;46.60
13115;DHT22;6623;52.120;8.660;2024-02-15T07:00:06;19.80;46.60
13115;DHT22;6623;52.120;8.660;2024-02-15T07:02:39;19.80;46.60
13115;DHT22;6623;52.120;8.660;2024-02-15T07:05:05;19.80;46.60
13115;DHT22;6623;52.120;8.660;2024-02-15T07:07:31;19.80;46.60
13115;DHT22;6623;52.120;8.660;2024-02-15T07:09:57;19.80;46.60
13115;DHT22;6623;52.120;8.660;2024-02-15T07:12:23;19.80;46.60
13115;DHT22;6623;52.120;8.660;2024-02-15T07:14:48;19.80;46.60
13115;DHT22;6623;52.120;8.660;2024-02-15T07:17:14;19.80;46.60
13115;DHT22;6623;52.120;8.660;2024-02-15T07:19:43;19.80;46.60
13115;DHT22;6623;52.120;8.660;2024-02-15T07:22:10;19.80;46.60
13115;DHT22;6623;52.120;8.660;2024-02-15T07:24:35;19.80;46.60
13115;DHT22;6623;52.120;8.660;2024-02-15T07:27:06;19.80;46.60
13115;DHT22;6623;52.120;8.660;2024-02-15T07:29:32;19.80;46.60
13115;DHT22;6623;52.120;8.660;2024-02-15T07:32:00;19.80;46.60
13115;DHT22;6623;52.120;8.660;2024-02-15T07:34:26;19.80;46.60
13115;DHT22;6623;52.120;8.660;2024-02-15T07:36:51;19.80;46.60
13115;DHT22;6623;52.120;8.660;2024-02-15T07:39:17;19.80;46.60
13115;DHT22;6623;52.120;8.660;2024-02-15T07:41:52;19.80;46.60
13115;DHT22;6623;52.120;8.660;2024-02-15T07:44:18;19.80;46.60
13115;DHT22;6623;52.120;8.660;2024-02-15T07:46:44;19.80;46.60
13115;DHT22;6623;52.120;8.660;2024-02-15T07:49:11;19.80;46.60
13115;DHT22;6623;52.120;8.660;2024-02-15T07:51:36;19.80;46.60
13115;DHT22;6623;52.120;8.660;2024-02-15T07:54:02;19.80;46.60
13115;DHT22;6623;52.120;8.660;2024-02-15T07:56:28;19.80;46.60
13115;DHT22;6623;52.120;8.660;2024-02-15T07:58:54;19.80;46.60
13115;DHT22;6623;52.120;8.660;2024-02-15T08:01:20;19.80;46.60
13115;DHT22;6623;52.120;8.660;2024-02-15T08:03:48;19.80;46.60
13115;DHT22;6623;52.120;8.660;2024-02-15T08:06:15;19.80;46.60
13115;DHT22;6623;52.120;8.660;2024-02-15T08:08:42;19.80;46.60
13115;DHT22;6623;52.120;8.660;2024-02-15T08:11:11;19.80;46.60
13115;DHT22;6623;52.120;8.660;2024-02-15T08:13:49;19.80;46.60
13115;DHT22;6623;52.120;8.660;2024-02-15T08:16:16;19.80;46.60
13115;DHT22;6623;52.120;8.660;2024-02-15T08:18:44;19.80;46.60
13115;DHT22;6623;52.120;8.660;2024-02-15T08:21:11;19.80;46.60
13115;DHT22;6623;52.120;8.660;2024-02-15T08:23:37;19.80;46.60
13115;DHT22;6623;52.120;8.660;2024-02-15T08:26:03;19.80;46.60
13115;DHT22;6623;52.120;8.660;2024-02-15T08:28:28;19.80;46.60
13115;DHT22;6623;52.120;8.660;2024-02-15T08:30:57;19.80;46.60
13115;DHT22;6623;52.120;8.660;2024-02-15T08:33:23;19.80;46.60
13115;DHT22;6623;52.120;8.660;2024-02-15T08:35:49;19.80;46.60
13115;DHT22;6623;52.120;8.660;2024-02-15T08:38:15;19.90;46.60
13115;DHT22;6623;52.120;8.660;2024-02-15T08:40:40;19.80;46.60
13115;DHT22;6623;52.120;8.660;2024-02-15T08:43:06;19.80;46.60
13115;DHT22;6623;52.120;8.660;2024-02-15T08:45:31;19.80;46.60
13115;DHT22;6623;52.120;8.660;2024-02-15T08:47:57;19.80;46.60
13115;DHT22;6623;52.120;8.660;2024-02-15T08:50:22;19.80;47.20
13115;DHT22;6623;52.120;8.660;2024-02-15T08:52:49;19.80;46.60
13115;DHT22;6623;52.120;8.660;2024-02-15T08:55:15;19.80;46.60
13115;DHT22;6623;52.120;8.660;2024-02-15T08:57:43;19.80;46.60
13115;DHT22;6623;52.120;8.660;2024-02-15T09:00:10;19.90;46.60
13115;DHT22;6623;52.120;8.660;2024-02-15T09:02:47;19.90;46.60
13115;DHT22;6623;52.120;8.660;2024-02-15T09:05:14;19.90;46.50
13115;DHT22;6623;52.120;8.660;2024-02-15T09:07:44;20.00;46.50
13115;DHT22;6623;52.120;8.660;2024-02-15T09:10:13;20.00;46.40
13115;DHT22;6623;52.120;8.660;2024-02-15T09:12:40;20.10;46.30
13115;DHT22;6623;52.120;8.660;2024-02-15T09:15:07;20.20;46.30
13115;DHT22;6623;52.120;8.660;2024-02-15T09:17:33;20.20;46.10
13115;DHT22;6623;52.120;8.660;2024-02-15T09:20:07;20.30;46.10
13115;DHT22;6623;52.120;8.660;2024-02-15T09:22:34;20.40;46.00
13115;DHT22;6623;52.120;8.660;2024-02-15T09:25:04;20.50;46.00
13115;DHT22;6623;52.120;8.660;2024-02-15T09:27:29;20.50;45.80
13115;DHT22;6623;52.120;8.660;2024-02-15T09:29:55;20.60;45.70
13115;DHT22;6623;52.120;8.660;2024-02-15T09:32:21;20.60;45.60
13115;DHT22;6623;52.120;8.660;2024-02-15T09:34:47;20.70;45.50
13115;DHT22;6623;52.120;8.660;2024-02-15T09:37:13;20.70;45.40
13115;DHT22;6623;52.120;8.660;2024-02-15T09:39:39;20.80;45.30
13115;DHT22;6623;52.120;8.660;2024-02-15T09:42:05;20.80;45.20
13115;DHT22;6623;52.120;8.660;2024-02-15T09:44:30;20.80;45.10
13115;DHT22;6623;52.120;8.660;2024-02-15T09:47:05;20.90;45.00
13115;DHT22;6623;52.120;8.660;2024-02-15T09:49:36;21.00;45.00
13115;DHT22;6623;52.120;8.660;2024-02-15T09:52:03;21.00;44.80
13115;DHT22;6623;52.120;8.660;2024-02-15T09:54:30;21.00;44.80
13115;DHT22;6623;52.120;8.660;2024-02-15T09:56:56;21.00;44.70
13115;DHT22;6623;52.120;8.660;2024-02-15T09:59:25;21.10;44.70
13115;DHT22;6623;52.120;8.660;2024-02-15T10:01:52;21.00;44.70
13115;DHT22;6623;52.120;8.660;2024-02-15T10:04:19;21.00;44.60
13115;DHT22;6623;52.120;8.660;2024-02-15T10:06:45;21.00;44.60
13115;DHT22;6623;52.120;8.660;2024-02-15T10:09:43;20.90;44.60
13115;DHT22;6623;52.120;8.660;2024-02-15T10:12:09;20.90;44.70
13115;DHT22;6623;52.120;8.660;2024-02-15T10:14:35;20.90;44.70
13115;DHT22;6623;52.120;8.660;2024-02-15T10:17:08;20.90;44.80
13115;DHT22;6623;52.120;8.660;2024-02-15T10:19:35;20.80;44.80
13115;DHT22;6623;52.120;8.660;2024-02-15T10:22:06;20.70;44.80
13115;DHT22;6623;52.120;8.660;2024-02-15T10:24:32;20.70;44.90
13115;DHT22;6623;52.120;8.660;2024-02-15T10:27:02;20.60;44.90
13115;DHT22;6623;52.120;8.660;2024-02-15T10:29:30;20.60;45.00
13115;DHT22;6623;52.120;8.660;2024-02-15T10:32:00;20.60;45.10
13115;DHT22;6623;52.120;8.660;2024-02-15T10:34:26;20.60;45.10
13115;DHT22;6623;52.120;8.660;2024-02-15T10:39:36;20.50;45.30
13115;DHT22;6623;52.120;8.660;2024-02-15T10:42:03;20.40;45.30
13115;DHT22;6623;52.120;8.660;2024-02-15T10:44:32;20.40;45.30
13115;DHT22;6623;52.120;8.660;2024-02-15T10:46:59;20.40;45.40
13115;DHT22;6623;52.120;8.660;2024-02-15T10:49:26;20.30;45.40
13115;DHT22;6623;52.120;8.660;2024-02-15T10:51:56;20.30;45.50
13115;DHT22;6623;52.120;8.660;2024-02-15T10:54:52;20.30;45.50
13115;DHT22;6623;52.120;8.660;2024-02-15T10:57:21;20.30;45.60
13115;DHT22;6623;52.120;8.660;2024-02-15T10:59:57;20.30;45.60
13115;DHT22;6623;52.120;8.660;2024-02-15T11:02:30;20.30;45.60
13115;DHT22;6623;52.120;8.660;2024-02-15T11:05:06;20.30;45.60
13115;DHT22;6623;52.120;8.660;2024-02-15T11:07:36;20.40;45.70
13115;DHT22;6623;52.120;8.660;2024-02-15T11:10:08;20.40;45.60
13115;DHT22;6623;52.120;8.660;2024-02-15T11:12:36;20.40;45.50
13115;DHT22;6623;52.120;8.660;2024-02-15T11:15:03;20.50;45.50
13115;DHT22;6623;52.120;8.660;2024-02-15T11:23:04;20.60;45.30
13115;DHT22;6623;52.120;8.660;2024-02-15T11:25:37;20.70;45.30
13115;DHT22;6623;52.120;8.660;2024-02-15T11:30:50;20.80;45.20
13115;DHT22;6623;52.120;8.660;2024-02-15T11:33:28;20.80;45.10
13115;DHT22;6623;52.120;8.660;2024-02-15T11:36:10;20.90;45.00
13115;DHT22;6623;52.120;8.660;2024-02-15T11:38:40;20.90;44.90
13115;DHT22;6623;52.120;8.660;2024-02-15T11:41:10;21.00;44.90
13115;DHT22;6623;52.120;8.660;2024-02-15T11:46:20;21.00;44.70
13115;DHT22;6623;52.120;8.660;2024-02-15T11:48:50;21.10;44.70
13115;DHT22;6623;52.120;8.660;2024-02-15T11:54:07;21.20;44.60
13115;DHT22;6623;52.120;8.660;2024-02-15T11:56:52;21.20;44.50
13115;DHT22;6623;52.120;8.660;2024-02-15T11:59:20;21.20;44.50
13115;DHT22;6623;52.120;8.660;2024-02-15T12:01:57;21.20;44.40
13115;DHT22;6623;52.120;8.660;2024-02-15T12:04:41;21.20;44.40
13115;DHT22;6623;52.120;8.660;2024-02-15T12:07:26;21.10;44.40
13115;DHT22;6623;52.120;8.660;2024-02-15T12:10:19;21.10;44.50
13115;DHT22;6623;52.120;8.660;2024-02-15T12:13:03;21.00;44.50
13115;DHT22;6623;52.120;8.660;2024-02-15T12:15:56;20.90;44.50
13115;DHT22;6623;52.120;8.660;2024-02-15T12:18:41;20.90;44.60
13115;DHT22;6623;52.120;8.660;2024-02-15T12:21:14;20.90;45.40
13115;DHT22;6623;52.120;8.660;2024-02-15T12:23:42;20.80;44.80
13115;DHT22;6623;52.120;8.660;2024-02-15T12:26:07;20.70;44.80
13115;DHT22;6623;52.120;8.660;2024-02-15T12:28:33;20.70;44.90
13115;DHT22;6623;52.120;8.660;2024-02-15T12:31:02;20.60;44.90
13115;DHT22;6623;52.120;8.660;2024-02-15T12:33:28;20.60;45.00
13115;DHT22;6623;52.120;8.660;2024-02-15T12:36:04;20.60;45.10
13115;DHT22;6623;52.120;8.660;2024-02-15T12:38:31;20.50;45.20
13115;DHT22;6623;52.120;8.660;2024-02-15T12:40:57;20.50;45.20
13115;DHT22;6623;52.120;8.660;2024-02-15T12:43:22;20.50;45.30
13115;DHT22;6623;52.120;8.660;2024-02-15T12:45:48;20.40;45.30
13115;DHT22;6623;52.120;8.660;2024-02-15T12:48:13;20.40;45.30
13115;DHT22;6623;52.120;8.660;2024-02-15T12:50:41;20.40;45.40
13115;DHT22;6623;52.120;8.660;2024-02-15T12:53:06;20.30;45.40
13115;DHT22;6623;52.120;8.660;2024-02-15T12:55:34;20.30;45.50
13115;DHT22;6623;52.120;8.660;2024-02-15T12:58:02;20.30;45.50
13115;DHT22;6623;52.120;8.660;2024-02-15T13:00:30;20.30;45.60
13115;DHT22;6623;52.120;8.660;2024-02-15T13:03:02;20.40;45.60
13115;DHT22;6623;52.120;8.660;2024-02-15T13:05:29;20.40;45.60
13115;DHT22;6623;52.120;8.660;2024-02-15T13:07:56;20.40;45.60
13115;DHT22;6623;52.120;8.660;2024-02-15T13:10:23;20.50;45.60
13115;DHT22;6623;52.120;8.660;2024-02-15T13:12:52;20.50;45.50
13115;DHT22;6623;52.120;8.660;2024-02-15T13:15:19;20.60;45.50
13115;DHT22;6623;52.120;8.660;2024-02-15T13:17:50;20.60;45.40
13115;DHT22;6623;52.120;8.660;2024-02-15T13:20:19;20.60;45.40
13115;DHT22;6623;52.120;8.660;2024-02-15T13:22:50;20.70;45.40
13115;DHT22;6623;52.120;8.660;2024-02-15T13:25:16;20.70;45.30
13115;DHT22;6623;52.120;8.660;2024-02-15T13:27:42;20.80;45.20
13115;DHT22;6623;52.120;8.660;2024-02-15T13:30:09;20.80;45.10
13115;DHT22;6623;52.120;8.660;2024-02-15T13:32:36;20.90;45.10
13115;DHT22;6623;52.120;8.660;2024-02-15T13:35:03;20.90;45.00
13115;DHT22;6623;52.120;8.660;2024-02-15T13:37:33;21.00;45.00
13115;DHT22;6623;52.120;8.660;2024-02-15T13:39:58;21.00;44.80
13115;DHT22;6623;52.120;8.660;2024-02-15T13:42:24;21.00;44.80
13115;DHT22;6623;52.120;8.660;2024-02-15T13:44:49;21.10;44.80
13115;DHT22;6623;52.120;8.660;2024-02-15T13:47:15;21.20;44.70
13115;DHT22;6623;52.120;8.660;2024-02-15T13:49:42;21.20;44.60
13115;DHT22;6623;52.120;8.660;2024-02-15T13:52:08;21.20;44.50
13115;DHT22;6623;52.120;8.660;2024-02-15T13:54:36;21.20;44.50
13115;DHT22;6623;52.120;8.660;2024-02-15T13:57:03;21.20;44.40
13115;DHT22;6623;52.120;8.660;2024-02-15T13:59:28;21.20;44.40
13115;DHT22;6623;52.120;8.660;2024-02-15T14:01:55;21.20;44.40
13115;DHT22;6623;52.120;8.660;2024-02-15T14:04:20;21.20;44.40
13115;DHT22;6623;52.120;8.660;2024-02-15T14:06:47;21.20;45.00
13115;DHT22;6623;52.120;8.660;2024-02-15T14:09:12;21.10;44.40
13115;DHT22;6623;52.120;8.660;2024-02-15T14:11:38;21.10;44.40
13115;DHT22;6623;52.120;8.660;2024-02-15T14:14:05;21.00;44.50
13115;DHT22;6623;52.120;8.660;2024-02-15T14:16:31;21.00;44.50
13115;DHT22;6623;52.120;8.660;2024-02-15T14:18:57;20.90;44.60
13115;DHT22;6623;52.120;8.660;2024-02-15T14:21:23;20.90;44.70
13115;DHT22;6623;52.120;8.660;2024-02-15T14:23:48;20.90;44.80
13115;DHT22;6623;52.120;8.660;2024-02-15T14:26:15;20.80;44.80
13115;DHT22;6623;52.120;8.660;2024-02-15T14:28:42;20.70;44.80
13115;DHT22;6623;52.120;8.660;2024-02-15T14:31:10;20.70;44.90
13115;DHT22;6623;52.120;8.660;2024-02-15T14:33:55;20.70;45.00
13115;DHT22;6623;52.120;8.660;2024-02-15T14:36:20;20.60;45.00
13115;DHT22;6623;52.120;8.660;2024-02-15T14:38:46;20.60;45.10
13115;DHT22;6623;52.120;8.660;2024-02-15T14:41:12;20.60;45.10
13115;DHT22;6623;52.120;8.660;2024-02-15T14:43:37;20.50;45.20
13115;DHT22;6623;52.120;8.660;2024-02-15T14:46:03;20.50;45.30
13115;DHT22;6623;52.120;8.660;2024-02-15T14:48:31;20.40;45.30
13115;DHT22;6623;52.120;8.660;2024-02-15T14:50:57;20.40;45.30
13115;DHT22;6623;52.120;8.660;2024-02-15T14:53:23;20.40;45.40
13115;DHT22;6623;52.120;8.660;2024-02-15T14:55:49;20.40;45.50
13115;DHT22;6623;52.120;8.660;2024-02-15T14:58:17;20.40;45.50
13115;DHT22;6623;52.120;8.660;2024-02-15T15:00:43;20.40;45.70
13115;DHT22;6623;52.120;8.660;2024-02-15T15:03:10;20.40;45.80
13115;DHT22;6623;52.120;8.660;2024-02-15T15:05:40;20.40;45.80
13115;DHT22;6623;52.120;8.660;2024-02-15T15:08:24;20.50;46.00
13115;DHT22;6623;52.120;8.660;2024-02-15T15:11:09;20.50;46.00
13115;DHT22;6623;52.120;8.660;2024-02-15T15:13:53;20.50;46.00
13115;DHT22;6623;52.120;8.660;2024-02-15T15:16:18;20.50;46.00
13115;DHT22;6623;52.120;8.660;2024-02-15T15:18:47;20.50;46.00
13115;DHT22;6623;52.120;8.660;2024-02-15T15:21:13;20.60;46.10
13115;DHT22;6623;52.120;8.660;2024-02-15T15:23:39;20.60;46.10
13115;DHT22;6623;52.120;8.660;2024-02-15T15:26:05;20.60;46.10
13115;DHT22;6623;52.120;8.660;2024-02-15T15:28:31;20.70;46.00
13115;DHT22;6623;52.120;8.660;2024-02-15T15:30:57;20.70;46.00
13115;DHT22;6623;52.120;8.660;2024-02-15T15:33:23;20.80;46.00
13115;DHT22;6623;52.120;8.660;2024-02-15T15:35:49;20.90;46.00
13115;DHT22;6623;52.120;8.660;2024-02-15T15:38:15;20.90;45.90
13115;DHT22;6623;52.120;8.660;2024-02-15T15:40:41;21.00;45.90
13115;DHT22;6623;52.120;8.660;2024-02-15T15:43:07;21.00;45.80
13115;DHT22;6623;52.120;8.660;2024-02-15T15:45:33;21.10;45.80
13115;DHT22;6623;52.120;8.660;2024-02-15T15:48:00;21.20;45.80
13115;DHT22;6623;52.120;8.660;2024-02-15T15:50:26;21.20;45.70
13115;DHT22;6623;52.120;8.660;2024-02-15T15:52:53;21.20;45.70
13115;DHT22;6623;52.120;8.660;2024-02-15T15:55:19;21.20;45.60
13115;DHT22;6623;52.120;8.660;2024-02-15T15:57:44;21.30;45.60
13115;DHT22;6623;52.120;8.660;2024-02-15T16:00:12;21.40;45.60
13115;DHT22;6623;52.120;8.660;2024-02-15T16:02:44;21.40;45.50
13115;DHT22;6623;52.120;8.660;2024-02-15T16:05:11;21.40;45.50
13115;DHT22;6623;52.120;8.660;2024-02-15T16:07:38;21.50;45.50